^^
Station Historical Data
Daily Summary for February 16, 2018 Units:  English    Metric   Both
« Previous Day
Next Day »
Daily Weekly Monthly Yearly Custom
  High: Low: Average:
Temperature: TemperatureF °F 62.1 °F 71.8 °F
Dew Point: DewpointF °F 57.5 °F 61.6 °F
Humidity: Humidity% 47% 73%
Wind Speed: WindSpeedMPHmph 0.0mph 0mph
Wind Gust: WindSpeedGustMPHmph - -
Wind- - North
Pressure: PressureIn in 30.13 in -
Precipitation: 0.00 in    
Historical Graphs
 
 
Tabular Data for February 16, 2018
Time Temperature Dew Point Pressure Wind Wind Speed Wind Gust Humidity Rainfall Rate (Hourly) solar Conditions
TemperatureF °F DewpointF °F PressureIn in Calm     Humidity% HourlyPrecipIn in SolarRadiationWatts/m^2 W/m2 Conditions
00:01 68.0 °F 65.9 °F 30.24 in Calm     93% 0.00 in 0.0 W/m2 FEW
00:06 68.0 °F 65.9 °F 30.24 in Calm     93% 0.00 in 0.0 W/m2 FEW
00:11 68.0 °F 65.9 °F 30.24 in Calm     93% 0.00 in 0.0 W/m2 FEW
00:16 68.0 °F 65.9 °F 30.24 in Calm     93% 0.00 in 0.0 W/m2 FEW
00:21 68.0 °F 65.9 °F 30.24 in Calm     93% 0.00 in 0.0 W/m2 FEW
00:24 68.0 °F 65.9 °F 30.24 in Calm     93% 0.00 in 0.0 W/m2 FEW
00:29 68.0 °F 65.9 °F 30.24 in Calm     93% 0.00 in 0.0 W/m2 FEW
00:34 68.0 °F 65.9 °F 30.24 in Calm     93% 0.00 in 0.0 W/m2 FEW
00:39 68.0 °F 65.9 °F 30.24 in Calm     93% 0.00 in 0.0 W/m2 FEW
00:44 68.0 °F 65.9 °F 30.24 in Calm     93% 0.00 in 0.0 W/m2 FEW
00:49 68.0 °F 65.9 °F 30.24 in Calm     93% 0.00 in 0.0 W/m2 FEW
00:54 68.0 °F 65.9 °F 30.24 in Calm     93% 0.00 in 0.0 W/m2 FEW
00:59 68.0 °F 65.9 °F 30.24 in Calm     93% 0.00 in 0.0 W/m2 FEW
01:04 66.9 °F 64.8 °F 30.23 in Calm     93% 0.00 in 0.0 W/m2 CLR
01:09 66.9 °F 64.8 °F 30.23 in Calm     93% 0.00 in 0.0 W/m2 CLR
01:14 66.9 °F 64.8 °F 30.23 in Calm     93% 0.00 in 0.0 W/m2 CLR
01:19 66.9 °F 64.8 °F 30.23 in Calm     93% 0.00 in 0.0 W/m2 CLR
01:24 66.9 °F 64.8 °F 30.23 in Calm     93% 0.00 in 0.0 W/m2 CLR
01:29 66.9 °F 64.8 °F 30.23 in Calm     93% 0.00 in 0.0 W/m2 CLR
01:34 66.9 °F 64.8 °F 30.23 in Calm     93% 0.00 in 0.0 W/m2 CLR
01:39 66.9 °F 64.8 °F 30.23 in Calm     93% 0.00 in 0.0 W/m2 CLR
01:44 66.9 °F 64.8 °F 30.23 in Calm     93% 0.00 in 0.0 W/m2 CLR
01:49 66.9 °F 64.8 °F 30.23 in Calm     93% 0.00 in 0.0 W/m2 CLR
01:54 66.9 °F 64.8 °F 30.23 in Calm     93% 0.00 in 0.0 W/m2 CLR
01:59 66.9 °F 64.8 °F 30.23 in Calm     93% 0.00 in 0.0 W/m2 CLR
02:04 64.9 °F 63.8 °F 30.22 in Calm     96% 0.00 in 0.0 W/m2 CLR
02:09 64.9 °F 63.8 °F 30.22 in Calm     96% 0.00 in 0.0 W/m2 CLR
02:14 64.9 °F 63.8 °F 30.22 in Calm     96% 0.00 in 0.0 W/m2 CLR
02:19 64.9 °F 63.8 °F 30.22 in Calm     96% 0.00 in 0.0 W/m2 CLR
02:24 64.9 °F 63.8 °F 30.22 in Calm     96% 0.00 in 0.0 W/m2 CLR
02:29 64.9 °F 63.8 °F 30.22 in Calm     96% 0.00 in 0.0 W/m2 CLR
02:34 64.9 °F 63.8 °F 30.22 in Calm     96% 0.00 in 0.0 W/m2 CLR
02:39 64.9 °F 63.8 °F 30.22 in Calm     96% 0.00 in 0.0 W/m2 CLR
02:44 64.9 °F 63.8 °F 30.22 in Calm     96% 0.00 in 0.0 W/m2 CLR
02:49 64.9 °F 63.8 °F 30.22 in Calm     96% 0.00 in 0.0 W/m2 CLR
02:54 64.9 °F 63.8 °F 30.22 in Calm     96% 0.00 in 0.0 W/m2 CLR
02:59 64.9 °F 63.8 °F 30.22 in Calm     96% 0.00 in 0.0 W/m2 CLR
03:04 63.0 °F 63.0 °F 30.20 in Calm     100% 0.00 in 0.0 W/m2 CLR
03:09 63.0 °F 63.0 °F 30.20 in Calm     100% 0.00 in 0.0 W/m2 CLR
03:14 63.0 °F 63.0 °F 30.20 in Calm     100% 0.00 in 0.0 W/m2 CLR
03:19 63.0 °F 63.0 °F 30.20 in Calm     100% 0.00 in 0.0 W/m2 CLR
03:24 63.0 °F 63.0 °F 30.20 in Calm     100% 0.00 in 0.0 W/m2 CLR
03:29 63.0 °F 63.0 °F 30.20 in Calm     100% 0.00 in 0.0 W/m2 CLR
03:34 63.0 °F 63.0 °F 30.20 in Calm     100% 0.00 in 0.0 W/m2 CLR
03:39 63.0 °F 63.0 °F 30.20 in Calm     100% 0.00 in 0.0 W/m2 CLR
03:44 63.0 °F 63.0 °F 30.20 in Calm     100% 0.00 in 0.0 W/m2 CLR
03:49 63.0 °F 63.0 °F 30.20 in Calm     100% 0.00 in 0.0 W/m2 CLR
03:54 63.0 °F 63.0 °F 30.20 in Calm     100% 0.00 in 0.0 W/m2 CLR
03:59 63.0 °F 63.0 °F 30.20 in Calm     100% 0.00 in 0.0 W/m2 CLR
04:04 64.0 °F 64.0 °F 30.20 in Calm     100% 0.00 in 0.0 W/m2 CLR
04:09 64.0 °F 64.0 °F 30.20 in Calm     100% 0.00 in 0.0 W/m2 CLR
04:14 64.0 °F 64.0 °F 30.20 in Calm     100% 0.00 in 0.0 W/m2 CLR
04:19 64.0 °F 64.0 °F 30.20 in Calm     100% 0.00 in 0.0 W/m2 CLR
04:24 64.0 °F 64.0 °F 30.20 in Calm     100% 0.00 in 0.0 W/m2 CLR
04:29 64.0 °F 64.0 °F 30.20 in Calm     100% 0.00 in 0.0 W/m2 CLR
04:34 64.0 °F 64.0 °F 30.20 in Calm     100% 0.00 in 0.0 W/m2 CLR
04:39 64.0 °F 64.0 °F 30.20 in Calm     100% 0.00 in 0.0 W/m2 CLR
04:44 64.0 °F 64.0 °F 30.20 in Calm     100% 0.00 in 0.0 W/m2 CLR
04:49 64.0 °F 64.0 °F 30.20 in Calm     100% 0.00 in 0.0 W/m2 CLR
04:54 64.0 °F 64.0 °F 30.20 in Calm     100% 0.00 in 0.0 W/m2 CLR
04:59 64.0 °F 64.0 °F 30.20 in Calm     100% 0.00 in 0.0 W/m2 CLR
05:04 63.0 °F 63.0 °F 30.19 in Calm     100% 0.00 in 0.0 W/m2 CLR
05:09 63.0 °F 63.0 °F 30.19 in Calm     100% 0.00 in 0.0 W/m2 CLR
05:14 63.0 °F 63.0 °F 30.19 in Calm     100% 0.00 in 0.0 W/m2 CLR
05:19 63.0 °F 63.0 °F 30.19 in Calm     100% 0.00 in 0.0 W/m2 CLR
05:24 63.0 °F 63.0 °F 30.19 in Calm     100% 0.00 in 0.0 W/m2 CLR
05:29 63.0 °F 63.0 °F 30.19 in Calm     100% 0.00 in 0.0 W/m2 CLR
05:34 63.0 °F 63.0 °F 30.19 in Calm     100% 0.00 in 0.0 W/m2 CLR
05:39 63.0 °F 63.0 °F 30.19 in Calm     100% 0.00 in 0.0 W/m2 CLR
05:44 63.0 °F 63.0 °F 30.19 in Calm     100% 0.00 in 0.0 W/m2 CLR
05:49 63.0 °F 63.0 °F 30.19 in Calm     100% 0.00 in 0.0 W/m2 CLR
05:54 63.0 °F 63.0 °F 30.19 in Calm     100% 0.00 in 0.0 W/m2 CLR
05:59 63.0 °F 63.0 °F 30.19 in Calm     100% 0.00 in 0.0 W/m2 CLR
06:04 63.0 °F 61.8 °F 30.19 in Calm     96% 0.00 in 0.0 W/m2 CLR
06:09 63.0 °F 61.8 °F 30.19 in Calm     96% 0.00 in 0.0 W/m2 CLR
06:14 63.0 °F 61.8 °F 30.19 in Calm     96% 0.00 in 0.0 W/m2 CLR
06:19 63.0 °F 61.8 °F 30.19 in Calm     96% 0.00 in 0.0 W/m2 CLR
06:24 63.0 °F 61.8 °F 30.19 in Calm     96% 0.00 in 0.0 W/m2 CLR
06:29 63.0 °F 61.8 °F 30.19 in Calm     96% 0.00 in 0.0 W/m2 CLR
06:34 63.0 °F 61.8 °F 30.19 in Calm     96% 0.00 in 0.0 W/m2 CLR
06:39 63.0 °F 61.8 °F 30.19 in Calm     96% 0.00 in 0.0 W/m2 CLR
06:44 63.0 °F 61.8 °F 30.19 in Calm     96% 0.00 in 0.0 W/m2 CLR
06:49 63.0 °F 61.8 °F 30.19 in Calm     96% 0.00 in 0.0 W/m2 CLR
06:54 63.0 °F 61.8 °F 30.19 in Calm     96% 0.00 in 0.0 W/m2 CLR
06:59 63.0 °F 61.8 °F 30.19 in Calm     96% 0.00 in 0.0 W/m2 CLR
07:04 62.1 °F 62.1 °F 30.20 in Calm     100% 0.00 in 0.0 W/m2 CLR
07:09 62.1 °F 62.1 °F 30.20 in Calm     100% 0.00 in 0.0 W/m2 CLR
07:14 62.1 °F 62.1 °F 30.20 in Calm     100% 0.00 in 0.0 W/m2 CLR
07:19 62.1 °F 62.1 °F 30.20 in Calm     100% 0.00 in 0.0 W/m2 CLR
07:24 62.1 °F 62.1 °F 30.20 in Calm     100% 0.00 in 0.0 W/m2 CLR
07:29 62.1 °F 62.1 °F 30.20 in Calm     100% 0.00 in 0.0 W/m2 CLR
07:34 62.1 °F 62.1 °F 30.20 in Calm     100% 0.00 in 0.0 W/m2 CLR
07:39 62.1 °F 62.1 °F 30.20 in Calm     100% 0.00 in 0.0 W/m2 CLR
07:44 62.1 °F 62.1 °F 30.20 in Calm     100% 0.00 in 0.0 W/m2 CLR
07:49 62.1 °F 62.1 °F 30.20 in Calm     100% 0.00 in 0.0 W/m2 CLR
07:54 62.1 °F 62.1 °F 30.20 in Calm     100% 0.00 in 0.0 W/m2 CLR
07:59 62.1 °F 62.1 °F 30.20 in Calm     100% 0.00 in 0.0 W/m2 CLR
08:04 63.0 °F 63.0 °F 30.21 in Calm     100% 0.00 in 0.0 W/m2 CLR
08:09 63.0 °F 63.0 °F 30.21 in Calm     100% 0.00 in 0.0 W/m2 CLR
08:14 63.0 °F 63.0 °F 30.21 in Calm     100% 0.00 in 0.0 W/m2 CLR
08:19 63.0 °F 63.0 °F 30.21 in Calm     100% 0.00 in 0.0 W/m2 CLR
08:24 63.0 °F 63.0 °F 30.21 in Calm     100% 0.00 in 0.0 W/m2 CLR
08:29 63.0 °F 63.0 °F 30.21 in Calm     100% 0.00 in 0.0 W/m2 CLR
08:34 63.0 °F 63.0 °F 30.21 in Calm     100% 0.00 in 0.0 W/m2 CLR
08:39 63.0 °F 63.0 °F 30.21 in Calm     100% 0.00 in 0.0 W/m2 CLR
08:44 63.0 °F 63.0 °F 30.21 in Calm     100% 0.00 in 0.0 W/m2 CLR
08:49 63.0 °F 63.0 °F 30.21 in Calm     100% 0.00 in 0.0 W/m2 CLR
08:54 63.0 °F 63.0 °F 30.21 in Calm     100% 0.00 in 0.0 W/m2 CLR
08:59 63.0 °F 63.0 °F 30.21 in Calm     100% 0.00 in 0.0 W/m2 CLR
09:04 69.1 °F 64.7 °F 30.22 in Calm     86% 0.00 in 0.0 W/m2 CLR
09:09 69.1 °F 64.7 °F 30.22 in Calm     86% 0.00 in 0.0 W/m2 CLR
09:14 69.1 °F 64.7 °F 30.22 in Calm     86% 0.00 in 0.0 W/m2 CLR
09:19 69.1 °F 64.7 °F 30.22 in Calm     86% 0.00 in 0.0 W/m2 CLR
09:24 69.1 °F 64.7 °F 30.22 in Calm     86% 0.00 in 0.0 W/m2 CLR
09:29 69.1 °F 64.7 °F 30.22 in Calm     86% 0.00 in 0.0 W/m2 CLR
09:34 69.1 °F 64.7 °F 30.22 in Calm     86% 0.00 in 0.0 W/m2 CLR
09:39 69.1 °F 64.7 °F 30.22 in Calm     86% 0.00 in 0.0 W/m2 CLR
09:44 69.1 °F 64.7 °F 30.22 in Calm     86% 0.00 in 0.0 W/m2 CLR
09:49 69.1 °F 64.7 °F 30.22 in Calm     86% 0.00 in 0.0 W/m2 CLR
09:54 69.1 °F 64.7 °F 30.22 in Calm     86% 0.00 in 0.0 W/m2 CLR
09:59 69.1 °F 64.7 °F 30.22 in Calm     86% 0.00 in 0.0 W/m2 CLR
10:04 73.9 °F 61.9 °F 30.22 in Calm     66% 0.00 in 0.0 W/m2 CLR
10:09 73.9 °F 61.9 °F 30.22 in Calm     66% 0.00 in 0.0 W/m2 CLR
10:14 73.9 °F 61.9 °F 30.22 in Calm     66% 0.00 in 0.0 W/m2 CLR
10:19 73.9 °F 61.9 °F 30.22 in Calm     66% 0.00 in 0.0 W/m2 CLR
10:24 73.9 °F 61.9 °F 30.22 in Calm     66% 0.00 in 0.0 W/m2 CLR
10:29 73.9 °F 61.9 °F 30.22 in Calm     66% 0.00 in 0.0 W/m2 CLR
10:34 73.9 °F 61.9 °F 30.22 in Calm     66% 0.00 in 0.0 W/m2 CLR
10:39 73.9 °F 61.9 °F 30.22 in Calm     66% 0.00 in 0.0 W/m2 CLR
10:44 73.9 °F 61.9 °F 30.22 in Calm     66% 0.00 in 0.0 W/m2 CLR
10:49 73.9 °F 61.9 °F 30.22 in Calm     66% 0.00 in 0.0 W/m2 CLR
10:54 73.9 °F 61.9 °F 30.22 in Calm     66% 0.00 in 0.0 W/m2 CLR
10:59 73.9 °F 61.9 °F 30.22 in Calm     66% 0.00 in 0.0 W/m2 CLR
11:04 77.0 °F 61.6 °F 30.22 in Calm     59% 0.00 in 0.0 W/m2 CLR
11:09 77.0 °F 61.6 °F 30.22 in Calm     59% 0.00 in 0.0 W/m2 CLR
11:14 77.0 °F 61.6 °F 30.22 in Calm     59% 0.00 in 0.0 W/m2 CLR
11:19 77.0 °F 61.6 °F 30.22 in Calm     59% 0.00 in 0.0 W/m2 CLR
11:24 77.0 °F 61.6 °F 30.22 in Calm     59% 0.00 in 0.0 W/m2 CLR
11:29 77.0 °F 61.6 °F 30.22 in Calm     59% 0.00 in 0.0 W/m2 CLR
11:34 77.0 °F 61.6 °F 30.22 in Calm     59% 0.00 in 0.0 W/m2 CLR
11:39 77.0 °F 61.6 °F 30.22 in Calm     59% 0.00 in 0.0 W/m2 CLR
11:44 77.0 °F 61.6 °F 30.22 in Calm     59% 0.00 in 0.0 W/m2 CLR
11:49 77.0 °F 61.6 °F 30.22 in Calm     59% 0.00 in 0.0 W/m2 CLR
11:54 77.0 °F 61.6 °F 30.22 in Calm     59% 0.00 in 0.0 W/m2 CLR
11:59 77.0 °F 61.6 °F 30.22 in Calm     59% 0.00 in 0.0 W/m2 CLR
12:04 80.1 °F 62.4 °F 30.20 in Calm     55% 0.00 in 0.0 W/m2 CLR
12:09 80.1 °F 62.4 °F 30.20 in Calm     55% 0.00 in 0.0 W/m2 CLR
12:14 80.1 °F 62.4 °F 30.20 in Calm     55% 0.00 in 0.0 W/m2 CLR
12:19 80.1 °F 62.4 °F 30.20 in Calm     55% 0.00 in 0.0 W/m2 CLR
12:24 80.1 °F 62.4 °F 30.20 in Calm     55% 0.00 in 0.0 W/m2 CLR
12:29 80.1 °F 62.4 °F 30.20 in Calm     55% 0.00 in 0.0 W/m2 CLR
12:34 80.1 °F 62.4 °F 30.20 in Calm     55% 0.00 in 0.0 W/m2 CLR
12:39 80.1 °F 62.4 °F 30.20 in Calm     55% 0.00 in 0.0 W/m2 CLR
12:44 80.1 °F 62.4 °F 30.20 in Calm     55% 0.00 in 0.0 W/m2 CLR
12:49 80.1 °F 62.4 °F 30.20 in Calm     55% 0.00 in 0.0 W/m2 CLR
12:54 80.1 °F 62.4 °F 30.20 in Calm     55% 0.00 in 0.0 W/m2 CLR
12:59 80.1 °F 62.4 °F 30.20 in Calm     55% 0.00 in 0.0 W/m2 CLR
13:04 81.0 °F 62.7 °F 30.17 in Calm     54% 0.00 in 0.0 W/m2 CLR
13:09 81.0 °F 62.7 °F 30.17 in Calm     54% 0.00 in 0.0 W/m2 CLR
13:14 81.0 °F 62.7 °F 30.17 in Calm     54% 0.00 in 0.0 W/m2 CLR
13:19 81.0 °F 62.7 °F 30.17 in Calm     54% 0.00 in 0.0 W/m2 CLR
13:24 81.0 °F 62.7 °F 30.17 in Calm     54% 0.00 in 0.0 W/m2 CLR
13:29 81.0 °F 62.7 °F 30.17 in Calm     54% 0.00 in 0.0 W/m2 CLR
13:34 81.0 °F 62.7 °F 30.17 in Calm     54% 0.00 in 0.0 W/m2 CLR
13:39 81.0 °F 62.7 °F 30.17 in Calm     54% 0.00 in 0.0 W/m2 CLR
13:44 81.0 °F 62.7 °F 30.17 in Calm     54% 0.00 in 0.0 W/m2 CLR
13:49 81.0 °F 62.7 °F 30.17 in Calm     54% 0.00 in 0.0 W/m2 CLR
13:54 81.0 °F 62.7 °F 30.17 in Calm     54% 0.00 in 0.0 W/m2 CLR
13:59 81.0 °F 62.7 °F 30.17 in Calm     54% 0.00 in 0.0 W/m2 CLR
14:04 81.0 °F 61.7 °F 30.15 in Calm     52% 0.00 in 0.0 W/m2 FEW
14:09 81.0 °F 61.7 °F 30.15 in Calm     52% 0.00 in 0.0 W/m2 FEW
14:14 81.0 °F 61.7 °F 30.15 in Calm     52% 0.00 in 0.0 W/m2 FEW
14:19 81.0 °F 61.7 °F 30.15 in Calm     52% 0.00 in 0.0 W/m2 FEW
14:24 81.0 °F 61.7 °F 30.15 in Calm     52% 0.00 in 0.0 W/m2 FEW
14:29 81.0 °F 61.7 °F 30.15 in Calm     52% 0.00 in 0.0 W/m2 FEW
14:34 81.0 °F 61.7 °F 30.15 in Calm     52% 0.00 in 0.0 W/m2 FEW
14:39 81.0 °F 61.7 °F 30.15 in Calm     52% 0.00 in 0.0 W/m2 FEW
14:44 81.0 °F 61.7 °F 30.15 in Calm     52% 0.00 in 0.0 W/m2 FEW
14:49 81.0 °F 61.7 °F 30.15 in Calm     52% 0.00 in 0.0 W/m2 FEW
14:54 81.0 °F 61.7 °F 30.15 in Calm     52% 0.00 in 0.0 W/m2 FEW
14:59 81.0 °F 61.7 °F 30.15 in Calm     52% 0.00 in 0.0 W/m2 FEW
15:04 84.0 °F 61.6 °F 30.13 in Calm     47% 0.00 in 0.0 W/m2 BKN
15:09 84.0 °F 61.6 °F 30.13 in Calm     47% 0.00 in 0.0 W/m2 BKN
15:14 84.0 °F 61.6 °F 30.13 in Calm     47% 0.00 in 0.0 W/m2 BKN
15:19 84.0 °F 61.6 °F 30.13 in Calm     47% 0.00 in 0.0 W/m2 BKN
15:24 84.0 °F 61.6 °F 30.13 in Calm     47% 0.00 in 0.0 W/m2 BKN
15:29 84.0 °F 61.6 °F 30.13 in Calm     47% 0.00 in 0.0 W/m2 BKN
15:34 84.0 °F 61.6 °F 30.13 in Calm     47% 0.00 in 0.0 W/m2 BKN
15:39 84.0 °F 61.6 °F 30.13 in Calm     47% 0.00 in 0.0 W/m2 BKN
15:44 84.0 °F 61.6 °F 30.13 in Calm     47% 0.00 in 0.0 W/m2 BKN
15:49 84.0 °F 61.6 °F 30.13 in Calm     47% 0.00 in 0.0 W/m2 BKN
15:54 84.0 °F 61.6 °F 30.13 in Calm     47% 0.00 in 0.0 W/m2 BKN
15:59 84.0 °F 61.6 °F 30.13 in Calm     47% 0.00 in 0.0 W/m2 BKN
16:04 82.9 °F 60.6 °F 30.13 in Calm     47% 0.00 in 0.0 W/m2 CLR
16:09 82.9 °F 60.6 °F 30.13 in Calm     47% 0.00 in 0.0 W/m2 CLR
16:14 82.9 °F 60.6 °F 30.13 in Calm     47% 0.00 in 0.0 W/m2 CLR
16:19 82.9 °F 60.6 °F 30.13 in Calm     47% 0.00 in 0.0 W/m2 CLR
16:24 82.9 °F 60.6 °F 30.13 in Calm     47% 0.00 in 0.0 W/m2 CLR
16:29 82.9 °F 60.6 °F 30.13 in Calm     47% 0.00 in 0.0 W/m2 CLR
16:34 82.9 °F 60.6 °F 30.13 in Calm     47% 0.00 in 0.0 W/m2 CLR
16:39 82.9 °F 60.6 °F 30.13 in Calm     47% 0.00 in 0.0 W/m2 CLR
16:44 82.9 °F 60.6 °F 30.13 in Calm     47% 0.00 in 0.0 W/m2 CLR
16:49 82.9 °F 60.6 °F 30.13 in Calm     47% 0.00 in 0.0 W/m2 CLR
16:54 82.9 °F 60.6 °F 30.13 in Calm     47% 0.00 in 0.0 W/m2 CLR
16:59 82.9 °F 60.6 °F 30.13 in Calm     47% 0.00 in 0.0 W/m2 CLR
17:04 81.0 °F 60.6 °F 30.13 in Calm     50% 0.00 in 0.0 W/m2 FEW
17:09 81.0 °F 60.6 °F 30.13 in Calm     50% 0.00 in 0.0 W/m2 FEW
17:14 81.0 °F 60.6 °F 30.13 in Calm     50% 0.00 in 0.0 W/m2 FEW
17:19 81.0 °F 60.6 °F 30.13 in Calm     50% 0.00 in 0.0 W/m2 FEW
17:24 81.0 °F 60.6 °F 30.13 in Calm     50% 0.00 in 0.0 W/m2 FEW
17:29 81.0 °F 60.6 °F 30.13 in Calm     50% 0.00 in 0.0 W/m2 FEW
17:34 81.0 °F 60.6 °F 30.13 in Calm     50% 0.00 in 0.0 W/m2 FEW
17:39 81.0 °F 60.6 °F 30.13 in Calm     50% 0.00 in 0.0 W/m2 FEW
17:44 81.0 °F 60.6 °F 30.13 in Calm     50% 0.00 in 0.0 W/m2 FEW
17:49 81.0 °F 60.6 °F 30.13 in Calm     50% 0.00 in 0.0 W/m2 FEW
17:54 81.0 °F 60.6 °F 30.13 in Calm     50% 0.00 in 0.0 W/m2 FEW
17:59 81.0 °F 60.6 °F 30.13 in Calm     50% 0.00 in 0.0 W/m2 FEW
18:04 79.0 °F 60.9 °F 30.15 in Calm     54% 0.00 in 0.0 W/m2 CLR
18:09 79.0 °F 60.9 °F 30.15 in Calm     54% 0.00 in 0.0 W/m2 CLR
18:14 79.0 °F 60.9 °F 30.15 in Calm     54% 0.00 in 0.0 W/m2 CLR
18:20 79.0 °F 60.9 °F 30.15 in Calm     54% 0.00 in 0.0 W/m2 CLR
18:25 79.0 °F 60.9 °F 30.15 in Calm     54% 0.00 in 0.0 W/m2 CLR
18:30 79.0 °F 60.9 °F 30.15 in Calm     54% 0.00 in 0.0 W/m2 CLR
18:34 79.0 °F 60.9 °F 30.15 in Calm     54% 0.00 in 0.0 W/m2 CLR
18:40 79.0 °F 60.9 °F 30.15 in Calm     54% 0.00 in 0.0 W/m2 CLR
18:45 79.0 °F 60.9 °F 30.15 in Calm     54% 0.00 in 0.0 W/m2 CLR
18:50 79.0 °F 60.9 °F 30.15 in Calm     54% 0.00 in 0.0 W/m2 CLR
18:55 79.0 °F 60.9 °F 30.15 in Calm     54% 0.00 in 0.0 W/m2 CLR
19:00 79.0 °F 60.9 °F 30.15 in Calm     54% 0.00 in 0.0 W/m2 CLR
19:05 77.0 °F 57.5 °F 30.16 in Calm     51% 0.00 in 0.0 W/m2 CLR
19:10 77.0 °F 57.5 °F 30.16 in Calm     51% 0.00 in 0.0 W/m2 CLR
19:15 77.0 °F 57.5 °F 30.16 in Calm     51% 0.00 in 0.0 W/m2 CLR
19:20 77.0 °F 57.5 °F 30.16 in Calm     51% 0.00 in 0.0 W/m2 CLR
19:25 77.0 °F 57.5 °F 30.16 in Calm     51% 0.00 in 0.0 W/m2 CLR
19:30 77.0 °F 57.5 °F 30.16 in Calm     51% 0.00 in 0.0 W/m2 CLR
19:35 77.0 °F 57.5 °F 30.16 in Calm     51% 0.00 in 0.0 W/m2 CLR
19:40 77.0 °F 57.5 °F 30.16 in Calm     51% 0.00 in 0.0 W/m2 CLR
19:45 77.0 °F 57.5 °F 30.16 in Calm     51% 0.00 in 0.0 W/m2 CLR
19:50 77.0 °F 57.5 °F 30.16 in Calm     51% 0.00 in 0.0 W/m2 CLR
19:55 77.0 °F 57.5 °F 30.16 in Calm     51% 0.00 in 0.0 W/m2 CLR
20:00 77.0 °F 57.5 °F 30.16 in Calm     51% 0.00 in 0.0 W/m2 CLR
20:05 73.9 °F 57.7 °F 30.17 in Calm     57% 0.00 in 0.0 W/m2 CLR
20:10 73.9 °F 57.7 °F 30.17 in Calm     57% 0.00 in 0.0 W/m2 CLR
20:15 73.9 °F 57.7 °F 30.17 in Calm     57% 0.00 in 0.0 W/m2 CLR
20:20 73.9 °F 57.7 °F 30.17 in Calm     57% 0.00 in 0.0 W/m2 CLR
20:25 73.9 °F 57.7 °F 30.17 in Calm     57% 0.00 in 0.0 W/m2 CLR
20:30 73.9 °F 57.7 °F 30.17 in Calm     57% 0.00 in 0.0 W/m2 CLR
20:35 73.9 °F 57.7 °F 30.17 in Calm     57% 0.00 in 0.0 W/m2 CLR
20:40 73.9 °F 57.7 °F 30.17 in Calm     57% 0.00 in 0.0 W/m2 CLR
20:45 73.9 °F 57.7 °F 30.17 in Calm     57% 0.00 in 0.0 W/m2 CLR
20:50 73.9 °F 57.7 °F 30.17 in Calm     57% 0.00 in 0.0 W/m2 CLR
20:55 73.9 °F 57.7 °F 30.17 in Calm     57% 0.00 in 0.0 W/m2 CLR
21:00 73.9 °F 57.7 °F 30.17 in Calm     57% 0.00 in 0.0 W/m2 CLR
21:05 72.0 °F 57.8 °F 30.18 in Calm     61% 0.00 in 0.0 W/m2 CLR
21:10 72.0 °F 57.8 °F 30.18 in Calm     61% 0.00 in 0.0 W/m2 CLR
21:15 72.0 °F 57.8 °F 30.18 in Calm     61% 0.00 in 0.0 W/m2 CLR
21:20 72.0 °F 57.8 °F 30.18 in Calm     61% 0.00 in 0.0 W/m2 CLR
21:25 72.0 °F 57.8 °F 30.18 in Calm     61% 0.00 in 0.0 W/m2 CLR
21:30 72.0 °F 57.8 °F 30.18 in Calm     61% 0.00 in 0.0 W/m2 CLR
21:35 72.0 °F 57.8 °F 30.18 in Calm     61% 0.00 in 0.0 W/m2 CLR
21:40 72.0 °F 57.8 °F 30.18 in Calm     61% 0.00 in 0.0 W/m2 CLR
21:45 72.0 °F 57.8 °F 30.18 in Calm     61% 0.00 in 0.0 W/m2 CLR
21:50 72.0 °F 57.8 °F 30.18 in Calm     61% 0.00 in 0.0 W/m2 CLR
21:55 72.0 °F 57.8 °F 30.18 in Calm     61% 0.00 in 0.0 W/m2 CLR
22:00 72.0 °F 57.8 °F 30.18 in Calm     61% 0.00 in 0.0 W/m2 CLR
22:05 70.0 °F 58.9 °F 30.19 in Calm     68% 0.00 in 0.0 W/m2 CLR
22:10 70.0 °F 58.9 °F 30.19 in Calm     68% 0.00 in 0.0 W/m2 CLR
22:15 70.0 °F 58.9 °F 30.19 in Calm     68% 0.00 in 0.0 W/m2 CLR
22:20 70.0 °F 58.9 °F 30.19 in Calm     68% 0.00 in 0.0 W/m2 CLR
22:25 70.0 °F 58.9 °F 30.19 in Calm     68% 0.00 in 0.0 W/m2 CLR
22:30 70.0 °F 58.9 °F 30.19 in Calm     68% 0.00 in 0.0 W/m2 CLR
22:35 70.0 °F 58.9 °F 30.19 in Calm     68% 0.00 in 0.0 W/m2 CLR
22:40 70.0 °F 58.9 °F 30.19 in Calm     68% 0.00 in 0.0 W/m2 CLR
22:45 70.0 °F 58.9 °F 30.19 in Calm     68% 0.00 in 0.0 W/m2 CLR
22:50 70.0 °F 58.9 °F 30.19 in Calm     68% 0.00 in 0.0 W/m2 CLR
22:55 70.0 °F 58.9 °F 30.19 in Calm     68% 0.00 in 0.0 W/m2 CLR
23:00 70.0 °F 58.9 °F 30.19 in Calm     68% 0.00 in 0.0 W/m2 CLR
23:05 69.1 °F 60.8 °F 30.19 in Calm     75% 0.00 in 0.0 W/m2 CLR
23:10 69.1 °F 60.8 °F 30.19 in Calm     75% 0.00 in 0.0 W/m2 CLR
23:15 69.1 °F 60.8 °F 30.19 in Calm     75% 0.00 in 0.0 W/m2 CLR
23:20 69.1 °F 60.8 °F 30.19 in Calm     75% 0.00 in 0.0 W/m2 CLR
23:25 69.1 °F 60.8 °F 30.19 in Calm     75% 0.00 in 0.0 W/m2 CLR
23:30 69.1 °F 60.8 °F 30.19 in Calm     75% 0.00 in 0.0 W/m2 CLR
23:35 69.1 °F 60.8 °F 30.19 in Calm     75% 0.00 in 0.0 W/m2 CLR
23:40 69.1 °F 60.8 °F 30.19 in Calm     75% 0.00 in 0.0 W/m2 CLR
23:45 69.1 °F 60.8 °F 30.19 in Calm     75% 0.00 in 0.0 W/m2 CLR
23:50 69.1 °F 60.8 °F 30.19 in Calm     75% 0.00 in 0.0 W/m2 CLR
23:55 69.1 °F 60.8 °F 30.19 in Calm     75% 0.00 in 0.0 W/m2 CLR
Lake Mary, FL, USA
Compliments of Weather Underground - 1.75 mb